sensor_id;sensor_type;location;lat;lon;timestamp;P1;durP1;ratioP1;P2;durP2;ratioP2
74624;SDS011;63131;52.298;8.056;2023-08-30T01:01:41;8.07;;;3.67;;
74624;SDS011;63131;52.298;8.056;2023-08-30T01:04:06;7.22;;;3.20;;
74624;SDS011;63131;52.298;8.056;2023-08-30T01:06:31;7.85;;;3.42;;
74624;SDS011;63131;52.298;8.056;2023-08-30T01:08:56;6.90;;;3.00;;
74624;SDS011;63131;52.298;8.056;2023-08-30T01:11:26;8.13;;;3.63;;
74624;SDS011;63131;52.298;8.056;2023-08-30T01:27:05;8.48;;;3.58;;
74624;SDS011;63131;52.298;8.056;2023-08-30T01:29:36;7.80;;;3.40;;
74624;SDS011;63131;52.298;8.056;2023-08-30T01:32:05;7.00;;;3.22;;
74624;SDS011;63131;52.298;8.056;2023-08-30T01:34:36;7.20;;;3.25;;
74624;SDS011;63131;52.298;8.056;2023-08-30T01:37:03;8.25;;;3.78;;
74624;SDS011;63131;52.298;8.056;2023-08-30T01:39:34;6.80;;;3.17;;
74624;SDS011;63131;52.298;8.056;2023-08-30T01:42:00;9.27;;;3.95;;
74624;SDS011;63131;52.298;8.056;2023-08-30T02:46:29;8.48;;;3.63;;
74624;SDS011;63131;52.298;8.056;2023-08-30T02:48:56;7.95;;;3.22;;
74624;SDS011;63131;52.298;8.056;2023-08-30T02:51:21;8.23;;;3.63;;
74624;SDS011;63131;52.298;8.056;2023-08-30T02:56:11;7.63;;;3.33;;
74624;SDS011;63131;52.298;8.056;2023-08-30T03:01:02;7.93;;;3.45;;
74624;SDS011;63131;52.298;8.056;2023-08-30T03:05:52;8.80;;;4.00;;
74624;SDS011;63131;52.298;8.056;2023-08-30T03:10:43;7.55;;;3.47;;
74624;SDS011;63131;52.298;8.056;2023-08-30T03:15:33;7.50;;;3.13;;
74624;SDS011;63131;52.298;8.056;2023-08-30T03:20:24;8.33;;;3.97;;
74624;SDS011;63131;52.298;8.056;2023-08-30T03:25:14;7.20;;;3.20;;
74624;SDS011;63131;52.298;8.056;2023-08-30T03:30:04;8.27;;;3.10;;
74624;SDS011;63131;52.298;8.056;2023-08-30T03:32:31;8.48;;;3.05;;
74624;SDS011;63131;52.298;8.056;2023-08-30T03:34:57;7.55;;;3.38;;
74624;SDS011;63131;52.298;8.056;2023-08-30T03:39:48;8.27;;;3.97;;
74624;SDS011;63131;52.298;8.056;2023-08-30T03:42:13;8.53;;;4.00;;
74624;SDS011;63131;52.298;8.056;2023-08-30T03:47:04;9.77;;;3.78;;
74624;SDS011;63131;52.298;8.056;2023-08-30T03:51:54;8.45;;;3.95;;
74624;SDS011;63131;52.298;8.056;2023-08-30T03:56:45;7.60;;;3.25;;
74624;SDS011;63131;52.298;8.056;2023-08-30T04:01:35;7.75;;;3.45;;
74624;SDS011;63131;52.298;8.056;2023-08-30T04:06:25;7.97;;;3.78;;
74624;SDS011;63131;52.298;8.056;2023-08-30T04:11:16;7.80;;;3.22;;
74624;SDS011;63131;52.298;8.056;2023-08-30T04:16:06;7.75;;;3.95;;
74624;SDS011;63131;52.298;8.056;2023-08-30T04:18:32;8.67;;;3.70;;
74624;SDS011;63131;52.298;8.056;2023-08-30T04:20:58;9.93;;;4.18;;
74624;SDS011;63131;52.298;8.056;2023-08-30T04:25:48;10.20;;;4.70;;
74624;SDS011;63131;52.298;8.056;2023-08-30T04:28:13;9.67;;;4.47;;
74624;SDS011;63131;52.298;8.056;2023-08-30T04:33:04;8.27;;;4.45;;
74624;SDS011;63131;52.298;8.056;2023-08-30T04:35:30;8.75;;;4.55;;
74624;SDS011;63131;52.298;8.056;2023-08-30T04:40:20;9.00;;;4.20;;
74624;SDS011;63131;52.298;8.056;2023-08-30T04:42:45;7.90;;;4.30;;
74624;SDS011;63131;52.298;8.056;2023-08-30T04:47:36;7.57;;;3.72;;
74624;SDS011;63131;52.298;8.056;2023-08-30T04:52:26;7.78;;;3.70;;
74624;SDS011;63131;52.298;8.056;2023-08-30T04:57:17;8.85;;;4.30;;
74624;SDS011;63131;52.298;8.056;2023-08-30T05:02:07;10.55;;;4.40;;
74624;SDS011;63131;52.298;8.056;2023-08-30T05:06:58;9.50;;;4.93;;
74624;SDS011;63131;52.298;8.056;2023-08-30T05:11:50;9.68;;;4.63;;
74624;SDS011;63131;52.298;8.056;2023-08-30T05:16:40;10.93;;;5.50;;
74624;SDS011;63131;52.298;8.056;2023-08-30T05:21:30;10.90;;;5.50;;
74624;SDS011;63131;52.298;8.056;2023-08-30T05:26:21;11.95;;;5.97;;
74624;SDS011;63131;52.298;8.056;2023-08-30T05:31:11;11.80;;;5.90;;
74624;SDS011;63131;52.298;8.056;2023-08-30T05:36:01;12.23;;;7.25;;
74624;SDS011;63131;52.298;8.056;2023-08-30T05:40:52;15.15;;;7.03;;
74624;SDS011;63131;52.298;8.056;2023-08-30T05:45:43;12.93;;;7.10;;
74624;SDS011;63131;52.298;8.056;2023-08-30T05:48:08;14.33;;;8.00;;
74624;SDS011;63131;52.298;8.056;2023-08-30T05:52:58;12.70;;;6.78;;
74624;SDS011;63131;52.298;8.056;2023-08-30T05:57:48;12.70;;;6.93;;
74624;SDS011;63131;52.298;8.056;2023-08-30T06:02:39;14.30;;;8.30;;
74624;SDS011;63131;52.298;8.056;2023-08-30T06:07:30;15.90;;;8.93;;
74624;SDS011;63131;52.298;8.056;2023-08-30T06:12:20;15.32;;;8.32;;
74624;SDS011;63131;52.298;8.056;2023-08-30T06:17:16;17.85;;;9.23;;
74624;SDS011;63131;52.298;8.056;2023-08-30T06:22:07;17.92;;;8.95;;
74624;SDS011;63131;52.298;8.056;2023-08-30T06:26:57;15.45;;;9.70;;
74624;SDS011;63131;52.298;8.056;2023-08-30T06:29:24;17.30;;;9.73;;
74624;SDS011;63131;52.298;8.056;2023-08-30T06:34:15;17.15;;;9.82;;
74624;SDS011;63131;52.298;8.056;2023-08-30T06:39:05;16.42;;;10.15;;
74624;SDS011;63131;52.298;8.056;2023-08-30T06:43:55;16.23;;;9.43;;
74624;SDS011;63131;52.298;8.056;2023-08-30T06:46:21;15.93;;;8.80;;
74624;SDS011;63131;52.298;8.056;2023-08-30T06:51:12;16.58;;;10.60;;
74624;SDS011;63131;52.298;8.056;2023-08-30T06:56:02;17.17;;;9.88;;
74624;SDS011;63131;52.298;8.056;2023-08-30T06:58:28;16.23;;;9.45;;
74624;SDS011;63131;52.298;8.056;2023-08-30T07:00:53;16.15;;;9.60;;
74624;SDS011;63131;52.298;8.056;2023-08-30T07:03:18;15.03;;;9.63;;
74624;SDS011;63131;52.298;8.056;2023-08-30T07:05:44;14.95;;;8.32;;
74624;SDS011;63131;52.298;8.056;2023-08-30T07:08:09;16.13;;;9.20;;
74624;SDS011;63131;52.298;8.056;2023-08-30T07:10:35;19.67;;;9.15;;
74624;SDS011;63131;52.298;8.056;2023-08-30T07:13:01;14.38;;;7.88;;
74624;SDS011;63131;52.298;8.056;2023-08-30T07:15:26;14.13;;;8.88;;
74624;SDS011;63131;52.298;8.056;2023-08-30T07:20:17;16.52;;;7.72;;
74624;SDS011;63131;52.298;8.056;2023-08-30T07:22:42;14.77;;;8.20;;
74624;SDS011;63131;52.298;8.056;2023-08-30T07:25:07;13.33;;;6.97;;
74624;SDS011;63131;52.298;8.056;2023-08-30T07:27:35;14.57;;;7.47;;
74624;SDS011;63131;52.298;8.056;2023-08-30T07:30:00;13.27;;;6.90;;
74624;SDS011;63131;52.298;8.056;2023-08-30T07:32:29;13.35;;;7.03;;
74624;SDS011;63131;52.298;8.056;2023-08-30T07:34:54;14.07;;;5.82;;
74624;SDS011;63131;52.298;8.056;2023-08-30T07:37:20;12.87;;;6.43;;
74624;SDS011;63131;52.298;8.056;2023-08-30T07:42:10;15.13;;;8.00;;
74624;SDS011;63131;52.298;8.056;2023-08-30T07:44:36;11.90;;;6.47;;
74624;SDS011;63131;52.298;8.056;2023-08-30T07:47:01;15.07;;;7.07;;
74624;SDS011;63131;52.298;8.056;2023-08-30T07:49:26;12.27;;;7.03;;
74624;SDS011;63131;52.298;8.056;2023-08-30T07:51:51;11.70;;;6.03;;
74624;SDS011;63131;52.298;8.056;2023-08-30T07:54:16;14.00;;;8.57;;
74624;SDS011;63131;52.298;8.056;2023-08-30T07:56:42;15.23;;;7.13;;
74624;SDS011;63131;52.298;8.056;2023-08-30T07:59:07;15.40;;;7.87;;
74624;SDS011;63131;52.298;8.056;2023-08-30T08:01:32;13.17;;;7.47;;
74624;SDS011;63131;52.298;8.056;2023-08-30T08:03:57;15.00;;;8.07;;
74624;SDS011;63131;52.298;8.056;2023-08-30T08:06:23;14.37;;;7.27;;
74624;SDS011;63131;52.298;8.056;2023-08-30T08:08:49;14.93;;;8.68;;
74624;SDS011;63131;52.298;8.056;2023-08-30T08:11:14;15.93;;;8.03;;
74624;SDS011;63131;52.298;8.056;2023-08-30T08:13:40;15.13;;;8.45;;
74624;SDS011;63131;52.298;8.056;2023-08-30T08:16:05;13.90;;;7.80;;
74624;SDS011;63131;52.298;8.056;2023-08-30T08:18:30;15.90;;;7.23;;
74624;SDS011;63131;52.298;8.056;2023-08-30T08:20:56;15.80;;;8.90;;
74624;SDS011;63131;52.298;8.056;2023-08-30T08:23:21;13.67;;;7.63;;
74624;SDS011;63131;52.298;8.056;2023-08-30T08:25:46;14.32;;;8.68;;
74624;SDS011;63131;52.298;8.056;2023-08-30T08:28:11;13.93;;;6.93;;
74624;SDS011;63131;52.298;8.056;2023-08-30T08:30:37;12.83;;;7.27;;
74624;SDS011;63131;52.298;8.056;2023-08-30T08:33:02;14.17;;;7.67;;
74624;SDS011;63131;52.298;8.056;2023-08-30T08:35:27;16.30;;;8.15;;
74624;SDS011;63131;52.298;8.056;2023-08-30T08:37:52;13.37;;;7.87;;
74624;SDS011;63131;52.298;8.056;2023-08-30T08:40:18;15.52;;;8.20;;
74624;SDS011;63131;52.298;8.056;2023-08-30T08:42:43;17.17;;;8.13;;
74624;SDS011;63131;52.298;8.056;2023-08-30T08:45:09;16.95;;;9.10;;
74624;SDS011;63131;52.298;8.056;2023-08-30T08:47:35;14.02;;;7.95;;
74624;SDS011;63131;52.298;8.056;2023-08-30T08:50:00;14.40;;;7.22;;
74624;SDS011;63131;52.298;8.056;2023-08-30T08:52:28;15.98;;;8.65;;
74624;SDS011;63131;52.298;8.056;2023-08-30T08:54:54;13.07;;;8.05;;
74624;SDS011;63131;52.298;8.056;2023-08-30T08:57:19;13.82;;;7.70;;
74624;SDS011;63131;52.298;8.056;2023-08-30T08:59:45;16.60;;;9.27;;
74624;SDS011;63131;52.298;8.056;2023-08-30T09:02:12;15.70;;;8.80;;
74624;SDS011;63131;52.298;8.056;2023-08-30T09:04:38;18.10;;;8.85;;
74624;SDS011;63131;52.298;8.056;2023-08-30T09:07:04;14.48;;;7.47;;
74624;SDS011;63131;52.298;8.056;2023-08-30T09:09:29;13.00;;;8.02;;
74624;SDS011;63131;52.298;8.056;2023-08-30T09:11:55;12.57;;;7.97;;
74624;SDS011;63131;52.298;8.056;2023-08-30T09:14:21;17.25;;;9.40;;
74624;SDS011;63131;52.298;8.056;2023-08-30T09:16:56;14.33;;;8.30;;
74624;SDS011;63131;52.298;8.056;2023-08-30T09:19:21;13.68;;;7.40;;
74624;SDS011;63131;52.298;8.056;2023-08-30T09:21:56;14.52;;;8.45;;
74624;SDS011;63131;52.298;8.056;2023-08-30T09:24:22;16.60;;;9.73;;
74624;SDS011;63131;52.298;8.056;2023-08-30T09:26:51;16.95;;;8.55;;
74624;SDS011;63131;52.298;8.056;2023-08-30T09:29:17;15.93;;;9.15;;
74624;SDS011;63131;52.298;8.056;2023-08-30T09:31:43;16.95;;;9.20;;
74624;SDS011;63131;52.298;8.056;2023-08-30T09:34:08;15.88;;;9.75;;
74624;SDS011;63131;52.298;8.056;2023-08-30T09:39:06;16.08;;;10.50;;
74624;SDS011;63131;52.298;8.056;2023-08-30T09:41:32;17.13;;;11.07;;
74624;SDS011;63131;52.298;8.056;2023-08-30T09:43:58;17.40;;;10.05;;
74624;SDS011;63131;52.298;8.056;2023-08-30T09:46:23;15.57;;;9.80;;
74624;SDS011;63131;52.298;8.056;2023-08-30T09:48:49;16.45;;;9.63;;
74624;SDS011;63131;52.298;8.056;2023-08-30T09:51:15;18.25;;;10.60;;
74624;SDS011;63131;52.298;8.056;2023-08-30T09:53:42;16.00;;;10.07;;
74624;SDS011;63131;52.298;8.056;2023-08-30T09:56:10;17.20;;;10.27;;
74624;SDS011;63131;52.298;8.056;2023-08-30T09:58:36;17.67;;;10.35;;
74624;SDS011;63131;52.298;8.056;2023-08-30T10:01:02;16.55;;;9.60;;
74624;SDS011;63131;52.298;8.056;2023-08-30T10:03:29;18.10;;;11.13;;
74624;SDS011;63131;52.298;8.056;2023-08-30T10:05:55;16.30;;;10.18;;
74624;SDS011;63131;52.298;8.056;2023-08-30T10:08:21;20.13;;;10.45;;
74624;SDS011;63131;52.298;8.056;2023-08-30T10:10:46;17.48;;;9.90;;
74624;SDS011;63131;52.298;8.056;2023-08-30T10:13:12;16.80;;;9.60;;
74624;SDS011;63131;52.298;8.056;2023-08-30T10:15:40;16.73;;;10.38;;
74624;SDS011;63131;52.298;8.056;2023-08-30T10:18:06;17.67;;;9.45;;
74624;SDS011;63131;52.298;8.056;2023-08-30T10:20:32;17.45;;;10.55;;
74624;SDS011;63131;52.298;8.056;2023-08-30T10:22:58;17.13;;;9.38;;
74624;SDS011;63131;52.298;8.056;2023-08-30T10:25:27;17.63;;;8.95;;
74624;SDS011;63131;52.298;8.056;2023-08-30T10:27:54;15.30;;;8.45;;
74624;SDS011;63131;52.298;8.056;2023-08-30T10:30:20;17.58;;;9.25;;
74624;SDS011;63131;52.298;8.056;2023-08-30T10:32:46;15.68;;;8.93;;
74624;SDS011;63131;52.298;8.056;2023-08-30T10:35:12;17.42;;;9.82;;
74624;SDS011;63131;52.298;8.056;2023-08-30T10:37:38;15.93;;;9.27;;
74624;SDS011;63131;52.298;8.056;2023-08-30T10:40:03;15.15;;;8.35;;
74624;SDS011;63131;52.298;8.056;2023-08-30T10:42:29;18.98;;;9.68;;
74624;SDS011;63131;52.298;8.056;2023-08-30T10:45:01;15.15;;;9.80;;
74624;SDS011;63131;52.298;8.056;2023-08-30T10:47:28;15.45;;;8.95;;
74624;SDS011;63131;52.298;8.056;2023-08-30T10:49:56;14.63;;;8.43;;
74624;SDS011;63131;52.298;8.056;2023-08-30T10:52:22;13.00;;;7.38;;
74624;SDS011;63131;52.298;8.056;2023-08-30T10:54:48;11.75;;;7.30;;
74624;SDS011;63131;52.298;8.056;2023-08-30T10:57:14;13.27;;;8.13;;
74624;SDS011;63131;52.298;8.056;2023-08-30T10:59:39;14.20;;;8.43;;
74624;SDS011;63131;52.298;8.056;2023-08-30T11:02:06;13.48;;;5.78;;
74624;SDS011;63131;52.298;8.056;2023-08-30T11:04:31;12.63;;;7.30;;
74624;SDS011;63131;52.298;8.056;2023-08-30T11:06:56;13.30;;;7.50;;
74624;SDS011;63131;52.298;8.056;2023-08-30T11:09:22;12.23;;;6.53;;
74624;SDS011;63131;52.298;8.056;2023-08-30T11:11:48;12.70;;;7.13;;
74624;SDS011;63131;52.298;8.056;2023-08-30T11:14:14;12.27;;;6.15;;
74624;SDS011;63131;52.298;8.056;2023-08-30T11:16:40;12.52;;;7.05;;
74624;SDS011;63131;52.298;8.056;2023-08-30T11:19:05;13.93;;;7.78;;
74624;SDS011;63131;52.298;8.056;2023-08-30T11:21:32;13.55;;;7.68;;
74624;SDS011;63131;52.298;8.056;2023-08-30T11:23:57;12.50;;;7.32;;
74624;SDS011;63131;52.298;8.056;2023-08-30T11:26:22;13.00;;;7.50;;
74624;SDS011;63131;52.298;8.056;2023-08-30T11:28:48;14.32;;;6.95;;
74624;SDS011;63131;52.298;8.056;2023-08-30T11:31:20;13.93;;;7.68;;
74624;SDS011;63131;52.298;8.056;2023-08-30T11:33:50;11.02;;;7.05;;
74624;SDS011;63131;52.298;8.056;2023-08-30T11:36:16;11.90;;;7.00;;
74624;SDS011;63131;52.298;8.056;2023-08-30T11:38:42;12.77;;;7.13;;
74624;SDS011;63131;52.298;8.056;2023-08-30T11:41:07;12.83;;;7.13;;
74624;SDS011;63131;52.298;8.056;2023-08-30T11:43:33;13.13;;;7.47;;
74624;SDS011;63131;52.298;8.056;2023-08-30T11:45:59;14.07;;;7.20;;
74624;SDS011;63131;52.298;8.056;2023-08-30T11:48:24;13.23;;;7.93;;
74624;SDS011;63131;52.298;8.056;2023-08-30T11:50:49;11.93;;;7.07;;
74624;SDS011;63131;52.298;8.056;2023-08-30T11:53:15;12.70;;;7.47;;
74624;SDS011;63131;52.298;8.056;2023-08-30T11:55:40;11.40;;;6.40;;
74624;SDS011;63131;52.298;8.056;2023-08-30T11:58:06;12.60;;;6.63;;
74624;SDS011;63131;52.298;8.056;2023-08-30T12:00:33;12.65;;;6.97;;
74624;SDS011;63131;52.298;8.056;2023-08-30T12:02:59;12.77;;;7.40;;
74624;SDS011;63131;52.298;8.056;2023-08-30T12:05:24;13.63;;;8.13;;
74624;SDS011;63131;52.298;8.056;2023-08-30T12:07:50;11.70;;;6.97;;
74624;SDS011;63131;52.298;8.056;2023-08-30T12:10:17;13.57;;;6.95;;
74624;SDS011;63131;52.298;8.056;2023-08-30T12:12:46;13.60;;;7.32;;
74624;SDS011;63131;52.298;8.056;2023-08-30T12:15:11;12.70;;;7.65;;
74624;SDS011;63131;52.298;8.056;2023-08-30T12:17:36;14.48;;;8.43;;
74624;SDS011;63131;52.298;8.056;2023-08-30T12:20:02;15.30;;;8.75;;
74624;SDS011;63131;52.298;8.056;2023-08-30T12:22:41;14.23;;;9.30;;
74624;SDS011;63131;52.298;8.056;2023-08-30T12:25:18;15.20;;;9.93;;
74624;SDS011;63131;52.298;8.056;2023-08-30T12:27:43;15.85;;;9.70;;
74624;SDS011;63131;52.298;8.056;2023-08-30T12:30:09;16.38;;;10.68;;
74624;SDS011;63131;52.298;8.056;2023-08-30T12:32:34;16.60;;;10.40;;
74624;SDS011;63131;52.298;8.056;2023-08-30T12:34:59;14.50;;;9.13;;
74624;SDS011;63131;52.298;8.056;2023-08-30T12:37:25;17.47;;;10.87;;
74624;SDS011;63131;52.298;8.056;2023-08-30T12:39:50;16.23;;;10.07;;
74624;SDS011;63131;52.298;8.056;2023-08-30T12:42:15;15.50;;;9.77;;
74624;SDS011;63131;52.298;8.056;2023-08-30T12:44:40;13.80;;;8.33;;
74624;SDS011;63131;52.298;8.056;2023-08-30T12:47:05;14.33;;;9.07;;
74624;SDS011;63131;52.298;8.056;2023-08-30T12:49:31;12.23;;;7.30;;
74624;SDS011;63131;52.298;8.056;2023-08-30T12:51:56;11.53;;;6.63;;
74624;SDS011;63131;52.298;8.056;2023-08-30T12:54:22;11.32;;;6.47;;
74624;SDS011;63131;52.298;8.056;2023-08-30T12:56:47;12.18;;;7.28;;
74624;SDS011;63131;52.298;8.056;2023-08-30T12:59:12;11.83;;;6.87;;
74624;SDS011;63131;52.298;8.056;2023-08-30T13:01:38;10.37;;;6.73;;
74624;SDS011;63131;52.298;8.056;2023-08-30T13:04:03;10.43;;;6.27;;
74624;SDS011;63131;52.298;8.056;2023-08-30T13:06:28;10.60;;;5.60;;
74624;SDS011;63131;52.298;8.056;2023-08-30T13:08:53;9.33;;;5.97;;
74624;SDS011;63131;52.298;8.056;2023-08-30T13:13:44;10.77;;;5.53;;
74624;SDS011;63131;52.298;8.056;2023-08-30T13:16:09;9.17;;;4.80;;
74624;SDS011;63131;52.298;8.056;2023-08-30T13:18:34;9.20;;;5.30;;
74624;SDS011;63131;52.298;8.056;2023-08-30T13:20:59;11.67;;;6.10;;
74624;SDS011;63131;52.298;8.056;2023-08-30T13:23:25;9.27;;;5.23;;
74624;SDS011;63131;52.298;8.056;2023-08-30T13:25:50;10.00;;;5.67;;
74624;SDS011;63131;52.298;8.056;2023-08-30T13:30:44;9.40;;;5.28;;
74624;SDS011;63131;52.298;8.056;2023-08-30T13:33:10;8.70;;;4.45;;
74624;SDS011;63131;52.298;8.056;2023-08-30T13:35:35;9.43;;;5.10;;
74624;SDS011;63131;52.298;8.056;2023-08-30T13:38:00;8.67;;;5.17;;
74624;SDS011;63131;52.298;8.056;2023-08-30T13:40:26;10.23;;;4.90;;
74624;SDS011;63131;52.298;8.056;2023-08-30T13:42:51;9.40;;;4.90;;
74624;SDS011;63131;52.298;8.056;2023-08-30T13:45:16;8.67;;;4.70;;
74624;SDS011;63131;52.298;8.056;2023-08-30T13:47:42;8.82;;;4.43;;
74624;SDS011;63131;52.298;8.056;2023-08-30T13:50:07;8.23;;;4.60;;
74624;SDS011;63131;52.298;8.056;2023-08-30T13:52:33;8.82;;;4.70;;
74624;SDS011;63131;52.298;8.056;2023-08-30T13:54:58;9.27;;;3.83;;
74624;SDS011;63131;52.298;8.056;2023-08-30T13:57:23;9.10;;;4.60;;
74624;SDS011;63131;52.298;8.056;2023-08-30T13:59:49;8.47;;;4.30;;
74624;SDS011;63131;52.298;8.056;2023-08-30T14:02:14;9.77;;;3.80;;
74624;SDS011;63131;52.298;8.056;2023-08-30T14:04:39;8.60;;;4.50;;
74624;SDS011;63131;52.298;8.056;2023-08-30T14:07:04;7.80;;;4.23;;
74624;SDS011;63131;52.298;8.056;2023-08-30T14:09:30;8.13;;;4.13;;
74624;SDS011;63131;52.298;8.056;2023-08-30T14:11:55;10.17;;;4.77;;
74624;SDS011;63131;52.298;8.056;2023-08-30T14:14:20;8.03;;;4.40;;
74624;SDS011;63131;52.298;8.056;2023-08-30T14:16:45;8.65;;;4.60;;
74624;SDS011;63131;52.298;8.056;2023-08-30T14:19:11;8.50;;;5.00;;
74624;SDS011;63131;52.298;8.056;2023-08-30T14:21:36;8.47;;;4.60;;
74624;SDS011;63131;52.298;8.056;2023-08-30T14:24:01;8.18;;;4.22;;
74624;SDS011;63131;52.298;8.056;2023-08-30T14:26:27;8.53;;;4.70;;
74624;SDS011;63131;52.298;8.056;2023-08-30T14:28:52;7.95;;;4.55;;
74624;SDS011;63131;52.298;8.056;2023-08-30T14:31:18;9.63;;;4.63;;
74624;SDS011;63131;52.298;8.056;2023-08-30T14:33:43;9.32;;;4.95;;
74624;SDS011;63131;52.298;8.056;2023-08-30T14:36:12;9.45;;;4.43;;
74624;SDS011;63131;52.298;8.056;2023-08-30T14:38:38;9.15;;;4.95;;
74624;SDS011;63131;52.298;8.056;2023-08-30T14:41:04;11.18;;;4.57;;
74624;SDS011;63131;52.298;8.056;2023-08-30T14:43:29;9.20;;;4.93;;
74624;SDS011;63131;52.298;8.056;2023-08-30T14:46:01;9.83;;;5.43;;
74624;SDS011;63131;52.298;8.056;2023-08-30T14:48:27;9.25;;;5.82;;
74624;SDS011;63131;52.298;8.056;2023-08-30T14:50:53;9.38;;;5.40;;
74624;SDS011;63131;52.298;8.056;2023-08-30T14:53:18;8.80;;;5.60;;
74624;SDS011;63131;52.298;8.056;2023-08-30T14:55:44;10.00;;;5.87;;
74624;SDS011;63131;52.298;8.056;2023-08-30T14:58:09;10.70;;;6.82;;
74624;SDS011;63131;52.298;8.056;2023-08-30T15:00:34;10.77;;;6.37;;
74624;SDS011;63131;52.298;8.056;2023-08-30T15:02:59;10.73;;;6.60;;
74624;SDS011;63131;52.298;8.056;2023-08-30T15:05:25;10.50;;;6.23;;
74624;SDS011;63131;52.298;8.056;2023-08-30T15:07:50;10.33;;;6.60;;
74624;SDS011;63131;52.298;8.056;2023-08-30T15:10:15;10.47;;;7.00;;
74624;SDS011;63131;52.298;8.056;2023-08-30T15:12:41;11.13;;;7.20;;
74624;SDS011;63131;52.298;8.056;2023-08-30T15:15:06;10.83;;;6.90;;
74624;SDS011;63131;52.298;8.056;2023-08-30T15:17:31;10.43;;;6.57;;
74624;SDS011;63131;52.298;8.056;2023-08-30T15:19:57;10.80;;;6.57;;
74624;SDS011;63131;52.298;8.056;2023-08-30T15:22:22;10.73;;;7.43;;
74624;SDS011;63131;52.298;8.056;2023-08-30T15:24:47;12.00;;;8.40;;
74624;SDS011;63131;52.298;8.056;2023-08-30T15:27:12;10.80;;;7.20;;
74624;SDS011;63131;52.298;8.056;2023-08-30T15:29:37;13.37;;;6.93;;
74624;SDS011;63131;52.298;8.056;2023-08-30T15:32:03;12.00;;;7.10;;
74624;SDS011;63131;52.298;8.056;2023-08-30T15:34:28;11.13;;;8.10;;
74624;SDS011;63131;52.298;8.056;2023-08-30T15:36:53;12.07;;;8.43;;
74624;SDS011;63131;52.298;8.056;2023-08-30T15:39:18;13.07;;;8.15;;
74624;SDS011;63131;52.298;8.056;2023-08-30T15:41:44;12.82;;;9.05;;
74624;SDS011;63131;52.298;8.056;2023-08-30T15:44:13;11.43;;;7.28;;
74624;SDS011;63131;52.298;8.056;2023-08-30T15:46:38;13.85;;;9.15;;
74624;SDS011;63131;52.298;8.056;2023-08-30T15:49:04;11.48;;;7.60;;
74624;SDS011;63131;52.298;8.056;2023-08-30T15:51:29;13.40;;;7.97;;
74624;SDS011;63131;52.298;8.056;2023-08-30T15:53:54;11.67;;;7.43;;
74624;SDS011;63131;52.298;8.056;2023-08-30T15:56:20;11.13;;;7.72;;
74624;SDS011;63131;52.298;8.056;2023-08-30T15:58:46;11.73;;;8.07;;
74624;SDS011;63131;52.298;8.056;2023-08-30T16:01:11;11.95;;;7.63;;
74624;SDS011;63131;52.298;8.056;2023-08-30T16:03:38;12.63;;;8.18;;
74624;SDS011;63131;52.298;8.056;2023-08-30T16:06:03;13.18;;;9.10;;
74624;SDS011;63131;52.298;8.056;2023-08-30T16:08:28;11.68;;;8.35;;
74624;SDS011;63131;52.298;8.056;2023-08-30T16:10:54;13.45;;;8.52;;
74624;SDS011;63131;52.298;8.056;2023-08-30T16:13:19;12.57;;;9.45;;
74624;SDS011;63131;52.298;8.056;2023-08-30T16:15:45;14.02;;;8.88;;
74624;SDS011;63131;52.298;8.056;2023-08-30T16:18:10;17.02;;;9.23;;
74624;SDS011;63131;52.298;8.056;2023-08-30T16:20:36;13.07;;;8.97;;
74624;SDS011;63131;52.298;8.056;2023-08-30T16:23:01;12.77;;;9.05;;
74624;SDS011;63131;52.298;8.056;2023-08-30T16:25:26;14.38;;;9.43;;
74624;SDS011;63131;52.298;8.056;2023-08-30T16:27:52;14.55;;;9.63;;
74624;SDS011;63131;52.298;8.056;2023-08-30T16:30:17;16.20;;;9.73;;
74624;SDS011;63131;52.298;8.056;2023-08-30T16:32:43;13.87;;;10.10;;
74624;SDS011;63131;52.298;8.056;2023-08-30T16:35:08;13.27;;;9.63;;
74624;SDS011;63131;52.298;8.056;2023-08-30T16:37:33;14.70;;;10.30;;
74624;SDS011;63131;52.298;8.056;2023-08-30T16:39:59;13.68;;;9.82;;
74624;SDS011;63131;52.298;8.056;2023-08-30T16:42:24;15.90;;;11.23;;
74624;SDS011;63131;52.298;8.056;2023-08-30T16:44:49;15.43;;;10.87;;
74624;SDS011;63131;52.298;8.056;2023-08-30T16:47:14;14.33;;;10.63;;
74624;SDS011;63131;52.298;8.056;2023-08-30T16:49:40;14.30;;;10.10;;
74624;SDS011;63131;52.298;8.056;2023-08-30T16:52:05;15.37;;;10.27;;
74624;SDS011;63131;52.298;8.056;2023-08-30T16:54:30;14.93;;;10.25;;
74624;SDS011;63131;52.298;8.056;2023-08-30T16:56:55;15.73;;;11.00;;
74624;SDS011;63131;52.298;8.056;2023-08-30T16:59:21;17.27;;;12.13;;
74624;SDS011;63131;52.298;8.056;2023-08-30T17:01:47;14.02;;;10.52;;
74624;SDS011;63131;52.298;8.056;2023-08-30T17:04:12;14.60;;;9.95;;
74624;SDS011;63131;52.298;8.056;2023-08-30T17:06:39;14.48;;;10.50;;
74624;SDS011;63131;52.298;8.056;2023-08-30T17:09:04;15.57;;;10.27;;
74624;SDS011;63131;52.298;8.056;2023-08-30T17:11:29;13.80;;;10.23;;
74624;SDS011;63131;52.298;8.056;2023-08-30T17:13:55;14.10;;;10.32;;
74624;SDS011;63131;52.298;8.056;2023-08-30T17:16:20;15.27;;;10.30;;
74624;SDS011;63131;52.298;8.056;2023-08-30T17:18:45;13.97;;;9.57;;
74624;SDS011;63131;52.298;8.056;2023-08-30T17:21:10;13.10;;;8.83;;
74624;SDS011;63131;52.298;8.056;2023-08-30T17:23:37;14.00;;;9.85;;
74624;SDS011;63131;52.298;8.056;2023-08-30T17:26:03;15.82;;;9.85;;
74624;SDS011;63131;52.298;8.056;2023-08-30T17:28:29;15.90;;;10.20;;
74624;SDS011;63131;52.298;8.056;2023-08-30T17:30:55;15.70;;;9.70;;
74624;SDS011;63131;52.298;8.056;2023-08-30T17:33:20;17.30;;;11.05;;
74624;SDS011;63131;52.298;8.056;2023-08-30T17:35:45;16.00;;;11.20;;
74624;SDS011;63131;52.298;8.056;2023-08-30T17:38:11;16.10;;;11.80;;
74624;SDS011;63131;52.298;8.056;2023-08-30T17:40:36;15.43;;;11.30;;
74624;SDS011;63131;52.298;8.056;2023-08-30T17:43:01;16.37;;;11.63;;
74624;SDS011;63131;52.298;8.056;2023-08-30T17:45:30;15.32;;;11.02;;
74624;SDS011;63131;52.298;8.056;2023-08-30T17:47:56;17.63;;;12.32;;
74624;SDS011;63131;52.298;8.056;2023-08-30T17:50:21;17.30;;;11.95;;
74624;SDS011;63131;52.298;8.056;2023-08-30T17:52:46;18.50;;;11.93;;
